<?xml version='1.0' encoding='UTF-8'?>
<gpx xmlns="http://www.topografix.com/GPX/1/1" creator="www.balnam.be" version="1.1" xmlns:xsi="http://www.w3.org/2001/XMLSchema-instance" xsi:schemaLocation="http://www.topografix.com/GPX/1/1 http://www.topografix.com/GPX/1/1/gpx.xsd">
<trk>
<name>nrcwv1</name>
<cmt>r</cmt>
<desc>Wavreille Chemin n°1 Chemin de Rochefort</desc>
<link href="https://chemins.be/wavreille/chemin/1"/><trkseg>
<trkpt lat="50.121579" lon="5.247607"><time>2026-05-04T17:55:12Z</time></trkpt>
<trkpt lat="50.121903" lon="5.246452"><time>2026-05-04T18:05:12Z</time></trkpt>
<trkpt lat="50.123211" lon="5.244602"><time>2026-05-04T18:15:12Z</time></trkpt>
<trkpt lat="50.124705" lon="5.239734"><time>2026-05-04T18:25:12Z</time></trkpt>
<trkpt lat="50.127746" lon="5.238196"><time>2026-05-04T18:35:12Z</time></trkpt>
<trkpt lat="50.131030" lon="5.235612"><time>2026-05-04T18:45:12Z</time></trkpt>
</trkseg></trk>
<trk>
<name>nrcwv1</name>
<cmt>v</cmt>
<desc>Wavreille Chemin n°1 Chemin de Rochefort</desc>
<link href="https://chemins.be/wavreille/chemin/1"/><trkseg>
<trkpt lat="50.131030" lon="5.235612"><time>2026-05-04T18:45:12Z</time></trkpt>
<trkpt lat="50.132572" lon="5.234954"><time>2026-05-04T18:55:12Z</time></trkpt>
<trkpt lat="50.134917" lon="5.232801"><time>2026-05-04T19:05:12Z</time></trkpt>
<trkpt lat="50.135207" lon="5.232428"><time>2026-05-04T19:15:12Z</time></trkpt>
<trkpt lat="50.136453" lon="5.231752"><time>2026-05-04T19:25:12Z</time></trkpt>
</trkseg>
</trk>
<trk>
<name>nrcwv10</name>
<cmt>v</cmt>
<desc>Wavreille Chemin n°10 </desc>
<link href="https://chemins.be/wavreille/chemin/10"/><trkseg>
<trkpt lat="50.105826" lon="5.201560"><time>2026-05-04T17:55:12Z</time></trkpt>
<trkpt lat="50.105082" lon="5.202554"><time>2026-05-04T18:05:12Z</time></trkpt>
<trkpt lat="50.104491" lon="5.203396"><time>2026-05-04T18:15:12Z</time></trkpt>
<trkpt lat="50.104065" lon="5.202648"><time>2026-05-04T18:25:12Z</time></trkpt>
<trkpt lat="50.103267" lon="5.202368"><time>2026-05-04T18:35:12Z</time></trkpt>
<trkpt lat="50.102470" lon="5.203193"><time>2026-05-04T18:45:12Z</time></trkpt>
<trkpt lat="50.101297" lon="5.203732"><time>2026-05-04T18:55:12Z</time></trkpt>
<trkpt lat="50.100001" lon="5.203877"><time>2026-05-04T19:05:12Z</time></trkpt>
<trkpt lat="50.099122" lon="5.204924"><time>2026-05-04T19:15:12Z</time></trkpt>
<trkpt lat="50.098500" lon="5.205150"><time>2026-05-04T19:25:12Z</time></trkpt>
</trkseg>
</trk>
<trk>
<name>nrcwv11</name>
<cmt>v</cmt>
<desc>Wavreille Chemin n°11 </desc>
<link href="https://chemins.be/wavreille/chemin/11"/><trkseg>
<trkpt lat="50.127287" lon="5.255538"><time>2026-05-04T17:55:12Z</time></trkpt>
<trkpt lat="50.123743" lon="5.258294"><time>2026-05-04T18:05:12Z</time></trkpt>
</trkseg></trk>
<trk>
<name>nrcwv11</name>
<cmt>q</cmt>
<desc>Wavreille Chemin n°11 </desc>
<link href="https://chemins.be/wavreille/chemin/11"/><trkseg>
<trkpt lat="50.123743" lon="5.258294"><time>2026-05-04T18:05:12Z</time></trkpt>
<trkpt lat="50.121867" lon="5.260631"><time>2026-05-04T18:15:12Z</time></trkpt>
<trkpt lat="50.120266" lon="5.261707"><time>2026-05-04T18:25:12Z</time></trkpt>
</trkseg>
</trk>
<trk>
<name>nrcwv12</name>
<cmt>v</cmt>
<desc>Wavreille Chemin n°12 </desc>
<link href="https://chemins.be/wavreille/chemin/12"/><trkseg>
<trkpt lat="50.125409" lon="5.236992"><time>2026-05-04T17:55:12Z</time></trkpt>
<trkpt lat="50.125890" lon="5.235127"><time>2026-05-04T18:05:12Z</time></trkpt>
</trkseg></trk>
<trk>
<name>nrcwv12</name>
<cmt>s</cmt>
<desc>Wavreille Chemin n°12 </desc>
<link href="https://chemins.be/wavreille/chemin/12"/><trkseg>
<trkpt lat="50.125890" lon="5.235127"><time>2026-05-04T18:05:12Z</time></trkpt>
<trkpt lat="50.126453" lon="5.230801"><time>2026-05-04T18:15:12Z</time></trkpt>
<trkpt lat="50.126792" lon="5.227577"><time>2026-05-04T18:25:12Z</time></trkpt>
<trkpt lat="50.126838" lon="5.226179"><time>2026-05-04T18:35:12Z</time></trkpt>
</trkseg></trk>
<trk>
<name>nrcwv12</name>
<cmt>v</cmt>
<desc>Wavreille Chemin n°12 </desc>
<link href="https://chemins.be/wavreille/chemin/12"/><trkseg>
<trkpt lat="50.126838" lon="5.226179"><time>2026-05-04T18:35:12Z</time></trkpt>
<trkpt lat="50.127271" lon="5.224760"><time>2026-05-04T18:45:12Z</time></trkpt>
<trkpt lat="50.127373" lon="5.224440"><time>2026-05-04T18:55:12Z</time></trkpt>
</trkseg>
</trk>
<trk>
<name>nrcwv13</name>
<cmt>r</cmt>
<desc>Wavreille Chemin n°13 Rue du Spolame</desc>
<link href="https://chemins.be/wavreille/chemin/13"/><trkseg>
<trkpt lat="50.116460" lon="5.246841"><time>2026-05-04T17:55:12Z</time></trkpt>
<trkpt lat="50.115818" lon="5.244956"><time>2026-05-04T18:05:12Z</time></trkpt>
</trkseg></trk>
<trk>
<name>nrcwv13</name>
<cmt>v</cmt>
<desc>Wavreille Chemin n°13 Rue du Spolame</desc>
<link href="https://chemins.be/wavreille/chemin/13"/><trkseg>
<trkpt lat="50.115818" lon="5.244956"><time>2026-05-04T18:05:12Z</time></trkpt>
<trkpt lat="50.115313" lon="5.242751"><time>2026-05-04T18:15:12Z</time></trkpt>
<trkpt lat="50.114772" lon="5.241734"><time>2026-05-04T18:25:12Z</time></trkpt>
<trkpt lat="50.114059" lon="5.239694"><time>2026-05-04T18:35:12Z</time></trkpt>
<trkpt lat="50.113283" lon="5.236783"><time>2026-05-04T18:45:12Z</time></trkpt>
<trkpt lat="50.113148" lon="5.235471"><time>2026-05-04T18:55:12Z</time></trkpt>
<trkpt lat="50.113375" lon="5.235174"><time>2026-05-04T19:05:12Z</time></trkpt>
<trkpt lat="50.113409" lon="5.234072"><time>2026-05-04T19:15:12Z</time></trkpt>
<trkpt lat="50.113349" lon="5.233579"><time>2026-05-04T19:25:12Z</time></trkpt>
<trkpt lat="50.113473" lon="5.232357"><time>2026-05-04T19:35:12Z</time></trkpt>
<trkpt lat="50.113492" lon="5.231476"><time>2026-05-04T19:45:12Z</time></trkpt>
<trkpt lat="50.113369" lon="5.231110"><time>2026-05-04T19:55:12Z</time></trkpt>
<trkpt lat="50.113106" lon="5.231343"><time>2026-05-04T20:05:12Z</time></trkpt>
<trkpt lat="50.112656" lon="5.230993"><time>2026-05-04T20:15:12Z</time></trkpt>
<trkpt lat="50.111238" lon="5.229536"><time>2026-05-04T20:25:12Z</time></trkpt>
<trkpt lat="50.110892" lon="5.229216"><time>2026-05-04T20:35:12Z</time></trkpt>
</trkseg>
</trk>
<trk>
<name>nrcwv14</name>
<cmt>v</cmt>
<desc>Wavreille Chemin n°14 </desc>
<link href="https://chemins.be/wavreille/chemin/14"/><trkseg>
<trkpt lat="50.124724" lon="5.238406"><time>2026-05-04T17:55:12Z</time></trkpt>
<trkpt lat="50.125335" lon="5.237173"><time>2026-05-04T18:05:12Z</time></trkpt>
<trkpt lat="50.126617" lon="5.236567"><time>2026-05-04T18:15:12Z</time></trkpt>
<trkpt lat="50.127495" lon="5.237002"><time>2026-05-04T18:25:12Z</time></trkpt>
<trkpt lat="50.128052" lon="5.236984"><time>2026-05-04T18:35:12Z</time></trkpt>
<trkpt lat="50.130350" lon="5.233893"><time>2026-05-04T18:45:12Z</time></trkpt>
<trkpt lat="50.132011" lon="5.231811"><time>2026-05-04T18:55:12Z</time></trkpt>
<trkpt lat="50.132735" lon="5.231265"><time>2026-05-04T19:05:12Z</time></trkpt>
<trkpt lat="50.133051" lon="5.231088"><time>2026-05-04T19:15:12Z</time></trkpt>
<trkpt lat="50.134220" lon="5.231082"><time>2026-05-04T19:25:12Z</time></trkpt>
</trkseg></trk>
<trk>
<name>nrcwv14</name>
<cmt>s</cmt>
<desc>Wavreille Chemin n°14 </desc>
<link href="https://chemins.be/wavreille/chemin/14"/><trkseg>
<trkpt lat="50.134220" lon="5.231082"><time>2026-05-04T19:25:12Z</time></trkpt>
<trkpt lat="50.136355" lon="5.230505"><time>2026-05-04T19:35:12Z</time></trkpt>
</trkseg>
</trk>
<trk>
<name>nrcwv15</name>
<cmt>v</cmt>
<desc>Wavreille Chemin n°15 </desc>
<link href="https://chemins.be/wavreille/chemin/15"/><trkseg>
<trkpt lat="50.124513" lon="5.240109"><time>2026-05-04T17:55:12Z</time></trkpt>
<trkpt lat="50.124461" lon="5.237520"><time>2026-05-04T18:05:12Z</time></trkpt>
<trkpt lat="50.122886" lon="5.235268"><time>2026-05-04T18:15:12Z</time></trkpt>
<trkpt lat="50.122545" lon="5.235220"><time>2026-05-04T18:25:12Z</time></trkpt>
<trkpt lat="50.121064" lon="5.234899"><time>2026-05-04T18:35:12Z</time></trkpt>
<trkpt lat="50.119336" lon="5.235050"><time>2026-05-04T18:45:12Z</time></trkpt>
<trkpt lat="50.117221" lon="5.235361"><time>2026-05-04T18:55:12Z</time></trkpt>
<trkpt lat="50.116193" lon="5.235711"><time>2026-05-04T19:05:12Z</time></trkpt>
<trkpt lat="50.116022" lon="5.235745"><time>2026-05-04T19:15:12Z</time></trkpt>
<trkpt lat="50.115446" lon="5.235888"><time>2026-05-04T19:25:12Z</time></trkpt>
<trkpt lat="50.114663" lon="5.234825"><time>2026-05-04T19:35:12Z</time></trkpt>
<trkpt lat="50.114248" lon="5.233769"><time>2026-05-04T19:45:12Z</time></trkpt>
<trkpt lat="50.113410" lon="5.234111"><time>2026-05-04T19:55:12Z</time></trkpt>
<trkpt lat="50.112855" lon="5.234519"><time>2026-05-04T20:05:12Z</time></trkpt>
<trkpt lat="50.111557" lon="5.235244"><time>2026-05-04T20:15:12Z</time></trkpt>
</trkseg></trk>
<trk>
<name>nrcwv15</name>
<cmt>q</cmt>
<desc>Wavreille Chemin n°15 </desc>
<link href="https://chemins.be/wavreille/chemin/15"/><trkseg>
<trkpt lat="50.111557" lon="5.235244"><time>2026-05-04T20:15:12Z</time></trkpt>
<trkpt lat="50.109901" lon="5.235103"><time>2026-05-04T20:25:12Z</time></trkpt>
</trkseg>
</trk>
<trk>
<name>nrcwv16</name>
<cmt>r</cmt>
<desc>Wavreille Chemin n°16 Rue des Chalets</desc>
<link href="https://chemins.be/wavreille/chemin/16"/><trkseg>
<trkpt lat="50.120761" lon="5.242879"><time>2026-05-04T17:55:12Z</time></trkpt>
<trkpt lat="50.121259" lon="5.241252"><time>2026-05-04T18:05:12Z</time></trkpt>
<trkpt lat="50.121557" lon="5.239845"><time>2026-05-04T18:15:12Z</time></trkpt>
<trkpt lat="50.121756" lon="5.238492"><time>2026-05-04T18:25:12Z</time></trkpt>
</trkseg></trk>
<trk>
<name>nrcwv16</name>
<cmt>v</cmt>
<desc>Wavreille Chemin n°16 Rue des Chalets</desc>
<link href="https://chemins.be/wavreille/chemin/16"/><trkseg>
<trkpt lat="50.121756" lon="5.238492"><time>2026-05-04T18:25:12Z</time></trkpt>
<trkpt lat="50.122190" lon="5.236920"><time>2026-05-04T18:35:12Z</time></trkpt>
<trkpt lat="50.122329" lon="5.235286"><time>2026-05-04T18:45:12Z</time></trkpt>
<trkpt lat="50.122235" lon="5.230963"><time>2026-05-04T18:55:12Z</time></trkpt>
<trkpt lat="50.123115" lon="5.228769"><time>2026-05-04T19:05:12Z</time></trkpt>
<trkpt lat="50.123252" lon="5.227163"><time>2026-05-04T19:15:12Z</time></trkpt>
<trkpt lat="50.123538" lon="5.225071"><time>2026-05-04T19:25:12Z</time></trkpt>
<trkpt lat="50.123109" lon="5.223469"><time>2026-05-04T19:35:12Z</time></trkpt>
</trkseg>
</trk>
<trk>
<name>nrcwv17</name>
<cmt>v</cmt>
<desc>Wavreille Chemin n°17 </desc>
<link href="https://chemins.be/wavreille/chemin/17"/><trkseg>
<trkpt lat="50.122254" lon="5.230837"><time>2026-05-04T17:55:12Z</time></trkpt>
<trkpt lat="50.121790" lon="5.229193"><time>2026-05-04T18:05:12Z</time></trkpt>
<trkpt lat="50.121937" lon="5.226384"><time>2026-05-04T18:15:12Z</time></trkpt>
<trkpt lat="50.121707" lon="5.224576"><time>2026-05-04T18:25:12Z</time></trkpt>
<trkpt lat="50.121637" lon="5.221862"><time>2026-05-04T18:35:12Z</time></trkpt>
<trkpt lat="50.120539" lon="5.219324"><time>2026-05-04T18:45:12Z</time></trkpt>
</trkseg>
</trk>
<trk>
<name>nrcwv18</name>
<cmt>v</cmt>
<desc>Wavreille Chemin n°18 Rue des Raines</desc>
<link href="https://chemins.be/wavreille/chemin/18"/><trkseg>
<trkpt lat="50.124851" lon="5.252380"><time>2026-05-04T17:55:12Z</time></trkpt>
<trkpt lat="50.125421" lon="5.254321"><time>2026-05-04T18:05:12Z</time></trkpt>
<trkpt lat="50.125473" lon="5.255706"><time>2026-05-04T18:15:12Z</time></trkpt>
<trkpt lat="50.125470" lon="5.256126"><time>2026-05-04T18:25:12Z</time></trkpt>
<trkpt lat="50.125644" lon="5.256912"><time>2026-05-04T18:35:12Z</time></trkpt>
</trkseg>
</trk>
<trk>
<name>nrcwv19</name>
<cmt>q</cmt>
<desc>Wavreille Chemin n°19 </desc>
<link href="https://chemins.be/wavreille/chemin/19"/><trkseg>
<trkpt lat="50.124233" lon="5.249767"><time>2026-05-04T17:55:12Z</time></trkpt>
<trkpt lat="50.125040" lon="5.250034"><time>2026-05-04T18:05:12Z</time></trkpt>
<trkpt lat="50.125801" lon="5.250426"><time>2026-05-04T18:15:12Z</time></trkpt>
</trkseg></trk>
<trk>
<name>nrcwv19</name>
<cmt>v</cmt>
<desc>Wavreille Chemin n°19 </desc>
<link href="https://chemins.be/wavreille/chemin/19"/><trkseg>
<trkpt lat="50.125801" lon="5.250426"><time>2026-05-04T18:15:12Z</time></trkpt>
<trkpt lat="50.126198" lon="5.251510"><time>2026-05-04T18:25:12Z</time></trkpt>
<trkpt lat="50.126868" lon="5.252040"><time>2026-05-04T18:35:12Z</time></trkpt>
<trkpt lat="50.127761" lon="5.254070"><time>2026-05-04T18:45:12Z</time></trkpt>
</trkseg>
</trk>
<trk>
<name>nrcwv2</name>
<cmt>q</cmt>
<desc>Wavreille Chemin n°2 Chemin de Jamalle</desc>
<link href="https://chemins.be/wavreille/chemin/2"/><trkseg>
<trkpt lat="50.122513" lon="5.246740"><time>2026-05-04T17:55:12Z</time></trkpt>
<trkpt lat="50.123499" lon="5.245740"><time>2026-05-04T18:05:12Z</time></trkpt>
<trkpt lat="50.124370" lon="5.244707"><time>2026-05-04T18:15:12Z</time></trkpt>
</trkseg>
</trk>
<trk>
<name>nrcwv20</name>
<cmt>s</cmt>
<desc>Wavreille Chemin n°20 Chemin de Wavreilles à Forrières</desc>
<link href="https://chemins.be/wavreille/chemin/20"/><trkseg>
<trkpt lat="50.121451" lon="5.253716"><time>2026-05-04T17:55:12Z</time></trkpt>
<trkpt lat="50.121528" lon="5.254332"><time>2026-05-04T18:05:12Z</time></trkpt>
<trkpt lat="50.121675" lon="5.255020"><time>2026-05-04T18:15:12Z</time></trkpt>
</trkseg></trk>
<trk>
<name>nrcwv20</name>
<cmt>d</cmt>
<desc>Wavreille Chemin n°20 Chemin de Wavreilles à Forrières</desc>
<link href="https://chemins.be/wavreille/chemin/20"/><trkseg>
<trkpt lat="50.121675" lon="5.255020"><time>2026-05-04T18:15:12Z</time></trkpt>
<trkpt lat="50.122237" lon="5.256737"><time>2026-05-04T18:25:12Z</time></trkpt>
<trkpt lat="50.123673" lon="5.258260"><time>2026-05-04T18:35:12Z</time></trkpt>
</trkseg>
</trk>
<trk>
<name>nrcwv21</name>
<cmt>s</cmt>
<desc>Wavreille Chemin n°21 </desc>
<link href="https://chemins.be/wavreille/chemin/21"/><trkseg>
<trkpt lat="50.124949" lon="5.239557"><time>2026-05-04T17:55:12Z</time></trkpt>
<trkpt lat="50.125603" lon="5.242184"><time>2026-05-04T18:05:12Z</time></trkpt>
<trkpt lat="50.125044" lon="5.243573"><time>2026-05-04T18:15:12Z</time></trkpt>
<trkpt lat="50.125404" lon="5.244824"><time>2026-05-04T18:25:12Z</time></trkpt>
</trkseg>
</trk>
<trk>
<name>nrcwv22</name>
<cmt>s</cmt>
<desc>Wavreille Chemin n°22 </desc>
<link href="https://chemins.be/wavreille/chemin/22"/><trkseg>
<trkpt lat="50.116749" lon="5.259599"><time>2026-05-04T17:55:12Z</time></trkpt>
<trkpt lat="50.116573" lon="5.260225"><time>2026-05-04T18:05:12Z</time></trkpt>
<trkpt lat="50.115457" lon="5.261547"><time>2026-05-04T18:15:12Z</time></trkpt>
</trkseg>
</trk>
<trk>
<name>nrcwv24</name>
<cmt>r</cmt>
<desc>Wavreille Chemin n°24 Rue du Repos</desc>
<link href="https://chemins.be/wavreille/chemin/24"/><trkseg>
<trkpt lat="50.117815" lon="5.243580"><time>2026-05-04T17:55:12Z</time></trkpt>
<trkpt lat="50.116650" lon="5.243111"><time>2026-05-04T18:05:12Z</time></trkpt>
<trkpt lat="50.116332" lon="5.242308"><time>2026-05-04T18:15:12Z</time></trkpt>
</trkseg></trk>
<trk>
<name>nrcwv24</name>
<cmt>v</cmt>
<desc>Wavreille Chemin n°24 Rue du Repos</desc>
<link href="https://chemins.be/wavreille/chemin/24"/><trkseg>
<trkpt lat="50.116332" lon="5.242308"><time>2026-05-04T18:15:12Z</time></trkpt>
<trkpt lat="50.116198" lon="5.242194"><time>2026-05-04T18:25:12Z</time></trkpt>
<trkpt lat="50.115928" lon="5.242357"><time>2026-05-04T18:35:12Z</time></trkpt>
<trkpt lat="50.115433" lon="5.242306"><time>2026-05-04T18:45:12Z</time></trkpt>
<trkpt lat="50.114648" lon="5.241508"><time>2026-05-04T18:55:12Z</time></trkpt>
</trkseg>
</trk>
<trk>
<name>nrcwv25</name>
<cmt>v</cmt>
<desc>Wavreille Chemin n°25 </desc>
<link href="https://chemins.be/wavreille/chemin/25"/><trkseg>
<trkpt lat="50.117825" lon="5.243552"><time>2026-05-04T17:55:12Z</time></trkpt>
<trkpt lat="50.117534" lon="5.242778"><time>2026-05-04T18:05:12Z</time></trkpt>
<trkpt lat="50.116715" lon="5.240511"><time>2026-05-04T18:15:12Z</time></trkpt>
<trkpt lat="50.116238" lon="5.235790"><time>2026-05-04T18:25:12Z</time></trkpt>
</trkseg>
</trk>
<trk>
<name>nrcwv26</name>
<cmt>r</cmt>
<desc>Wavreille Chemin n°26 Rue du Repos</desc>
<link href="https://chemins.be/wavreille/chemin/26"/><trkseg>
<trkpt lat="50.118558" lon="5.245202"><time>2026-05-04T17:55:12Z</time></trkpt>
<trkpt lat="50.118129" lon="5.243754"><time>2026-05-04T18:05:12Z</time></trkpt>
</trkseg></trk>
<trk>
<name>nrcwv26</name>
<cmt>v</cmt>
<desc>Wavreille Chemin n°26 Rue du Repos</desc>
<link href="https://chemins.be/wavreille/chemin/26"/><trkseg>
<trkpt lat="50.118129" lon="5.243754"><time>2026-05-04T18:05:12Z</time></trkpt>
<trkpt lat="50.118333" lon="5.241660"><time>2026-05-04T18:15:12Z</time></trkpt>
<trkpt lat="50.119980" lon="5.240319"><time>2026-05-04T18:25:12Z</time></trkpt>
<trkpt lat="50.120272" lon="5.239807"><time>2026-05-04T18:35:12Z</time></trkpt>
</trkseg>
</trk>
<trk>
<name>nrcwv28</name>
<cmt>r</cmt>
<desc>Wavreille Chemin n°28 Les Beyolettes</desc>
<link href="https://chemins.be/wavreille/chemin/28"/><trkseg>
<trkpt lat="50.128352" lon="5.243787"><time>2026-05-04T17:55:12Z</time></trkpt>
<trkpt lat="50.128868" lon="5.245573"><time>2026-05-04T18:05:12Z</time></trkpt>
</trkseg>
</trk>
<trk>
<name>nrcwv3</name>
<cmt>v</cmt>
<desc>Wavreille Chemin n°3 Chemin n°3 / Chemin n°6</desc>
<link href="https://chemins.be/wavreille/chemin/3"/><trkseg>
<trkpt lat="50.117412" lon="5.248734"><time>2026-05-04T17:55:12Z</time></trkpt>
<trkpt lat="50.116889" lon="5.249071"><time>2026-05-04T18:05:12Z</time></trkpt>
<trkpt lat="50.113473" lon="5.249585"><time>2026-05-04T18:15:12Z</time></trkpt>
<trkpt lat="50.111888" lon="5.251611"><time>2026-05-04T18:25:12Z</time></trkpt>
<trkpt lat="50.109803" lon="5.251895"><time>2026-05-04T18:35:12Z</time></trkpt>
<trkpt lat="50.109629" lon="5.252102"><time>2026-05-04T18:45:12Z</time></trkpt>
<trkpt lat="50.109510" lon="5.252621"><time>2026-05-04T18:55:12Z</time></trkpt>
</trkseg>
</trk>
<trk>
<name>nrcwv30</name>
<cmt>v</cmt>
<desc>Wavreille Chemin n°30 </desc>
<link href="https://chemins.be/wavreille/chemin/30"/><trkseg>
<trkpt lat="50.119922" lon="5.249086"><time>2026-05-04T17:55:12Z</time></trkpt>
<trkpt lat="50.119944" lon="5.249786"><time>2026-05-04T18:05:12Z</time></trkpt>
<trkpt lat="50.119839" lon="5.250609"><time>2026-05-04T18:15:12Z</time></trkpt>
</trkseg>
</trk>
<trk>
<name>nrcwv32</name>
<cmt>v</cmt>
<desc>Wavreille Chemin n°32 </desc>
<link href="https://chemins.be/wavreille/chemin/32"/><trkseg>
<trkpt lat="50.110895" lon="5.205591"><time>2026-05-04T17:55:12Z</time></trkpt>
<trkpt lat="50.111056" lon="5.205678"><time>2026-05-04T18:05:12Z</time></trkpt>
<trkpt lat="50.111107" lon="5.206182"><time>2026-05-04T18:15:12Z</time></trkpt>
<trkpt lat="50.111274" lon="5.206647"><time>2026-05-04T18:25:12Z</time></trkpt>
<trkpt lat="50.111588" lon="5.206792"><time>2026-05-04T18:35:12Z</time></trkpt>
</trkseg></trk>
<trk>
<name>nrcwv32</name>
<cmt>s</cmt>
<desc>Wavreille Chemin n°32 </desc>
<link href="https://chemins.be/wavreille/chemin/32"/><trkseg>
<trkpt lat="50.111588" lon="5.206792"><time>2026-05-04T18:35:12Z</time></trkpt>
<trkpt lat="50.112784" lon="5.206785"><time>2026-05-04T18:45:12Z</time></trkpt>
<trkpt lat="50.113287" lon="5.206836"><time>2026-05-04T18:55:12Z</time></trkpt>
<trkpt lat="50.113643" lon="5.207248"><time>2026-05-04T19:05:12Z</time></trkpt>
<trkpt lat="50.114209" lon="5.207341"><time>2026-05-04T19:15:12Z</time></trkpt>
<trkpt lat="50.114679" lon="5.206986"><time>2026-05-04T19:25:12Z</time></trkpt>
</trkseg>
</trk>
<trk>
<name>nrcwv32bis</name>
<cmt>v</cmt>
<desc>Wavreille Chemin n°32bis </desc>
<link href="https://chemins.be/wavreille/chemin/32bis"/><trkseg>
<trkpt lat="50.114834" lon="5.241847"><time>2026-05-04T17:55:12Z</time></trkpt>
<trkpt lat="50.114302" lon="5.243264"><time>2026-05-04T18:05:12Z</time></trkpt>
<trkpt lat="50.113886" lon="5.243634"><time>2026-05-04T18:15:12Z</time></trkpt>
<trkpt lat="50.113311" lon="5.244686"><time>2026-05-04T18:25:12Z</time></trkpt>
</trkseg>
</trk>
<trk>
<name>nrcwv33</name>
<cmt>d</cmt>
<desc>Wavreille Sentier n°33 </desc>
<link href="https://chemins.be/wavreille/sentier/33"/><trkseg>
<trkpt lat="50.110754" lon="5.227274"><time>2026-05-04T17:55:12Z</time></trkpt>
<trkpt lat="50.110796" lon="5.225303"><time>2026-05-04T18:05:12Z</time></trkpt>
</trkseg></trk>
<trk>
<name>nrcwv33</name>
<cmt>v</cmt>
<desc>Wavreille Sentier n°33 </desc>
<link href="https://chemins.be/wavreille/sentier/33"/><trkseg>
<trkpt lat="50.110796" lon="5.225303"><time>2026-05-04T18:05:12Z</time></trkpt>
<trkpt lat="50.110857" lon="5.218783"><time>2026-05-04T18:15:12Z</time></trkpt>
<trkpt lat="50.110885" lon="5.215773"><time>2026-05-04T18:25:12Z</time></trkpt>
<trkpt lat="50.110972" lon="5.214834"><time>2026-05-04T18:35:12Z</time></trkpt>
</trkseg></trk>
<trk>
<name>nrcwv33</name>
<cmt>d</cmt>
<desc>Wavreille Sentier n°33 </desc>
<link href="https://chemins.be/wavreille/sentier/33"/><trkseg>
<trkpt lat="50.110972" lon="5.214834"><time>2026-05-04T18:35:12Z</time></trkpt>
<trkpt lat="50.111705" lon="5.211702"><time>2026-05-04T18:45:12Z</time></trkpt>
<trkpt lat="50.112635" lon="5.209970"><time>2026-05-04T18:55:12Z</time></trkpt>
<trkpt lat="50.113917" lon="5.209140"><time>2026-05-04T19:05:12Z</time></trkpt>
</trkseg>
</trk>
<trk>
<name>nrcwv34</name>
<cmt>r</cmt>
<desc>Wavreille Sentier n°34 Rue Belle-Vue</desc>
<link href="https://chemins.be/wavreille/sentier/34"/><trkseg>
<trkpt lat="50.119422" lon="5.252182"><time>2026-05-04T17:55:12Z</time></trkpt>
<trkpt lat="50.120136" lon="5.256404"><time>2026-05-04T18:05:12Z</time></trkpt>
</trkseg></trk>
<trk>
<name>nrcwv34</name>
<cmt>v</cmt>
<desc>Wavreille Sentier n°34 Rue Belle-Vue</desc>
<link href="https://chemins.be/wavreille/sentier/34"/><trkseg>
<trkpt lat="50.120136" lon="5.256404"><time>2026-05-04T18:05:12Z</time></trkpt>
<trkpt lat="50.120211" lon="5.256876"><time>2026-05-04T18:15:12Z</time></trkpt>
</trkseg></trk>
<trk>
<name>nrcwv34</name>
<cmt>d</cmt>
<desc>Wavreille Sentier n°34 Rue Belle-Vue</desc>
<link href="https://chemins.be/wavreille/sentier/34"/><trkseg>
<trkpt lat="50.120211" lon="5.256876"><time>2026-05-04T18:15:12Z</time></trkpt>
<trkpt lat="50.120701" lon="5.257785"><time>2026-05-04T18:25:12Z</time></trkpt>
</trkseg>
</trk>
<trk>
<name>nrcwv4</name>
<cmt>v</cmt>
<desc>Wavreille Chemin n°4 Chemin de Tellin</desc>
<link href="https://chemins.be/wavreille/chemin/4"/><trkseg>
<trkpt lat="50.116530" lon="5.246954"><time>2026-05-04T17:55:12Z</time></trkpt>
<trkpt lat="50.116002" lon="5.247178"><time>2026-05-04T18:05:12Z</time></trkpt>
<trkpt lat="50.113249" lon="5.244755"><time>2026-05-04T18:15:12Z</time></trkpt>
<trkpt lat="50.111390" lon="5.244517"><time>2026-05-04T18:25:12Z</time></trkpt>
<trkpt lat="50.110256" lon="5.243969"><time>2026-05-04T18:35:12Z</time></trkpt>
<trkpt lat="50.109766" lon="5.242733"><time>2026-05-04T18:45:12Z</time></trkpt>
</trkseg>
</trk>
<trk>
<name>nrcwv5</name>
<cmt>r</cmt>
<desc>Wavreille Chemin n°5 Le grand chemin de Han</desc>
<link href="https://chemins.be/wavreille/chemin/5"/><trkseg>
<trkpt lat="50.121758" lon="5.246533"><time>2026-05-04T17:55:12Z</time></trkpt>
<trkpt lat="50.120923" lon="5.242798"><time>2026-05-04T18:05:12Z</time></trkpt>
<trkpt lat="50.120354" lon="5.239655"><time>2026-05-04T18:15:12Z</time></trkpt>
<trkpt lat="50.120870" lon="5.236700"><time>2026-05-04T18:25:12Z</time></trkpt>
<trkpt lat="50.121227" lon="5.235951"><time>2026-05-04T18:35:12Z</time></trkpt>
<trkpt lat="50.121272" lon="5.234707"><time>2026-05-04T18:45:12Z</time></trkpt>
<trkpt lat="50.121476" lon="5.231439"><time>2026-05-04T18:55:12Z</time></trkpt>
<trkpt lat="50.120829" lon="5.229022"><time>2026-05-04T19:05:12Z</time></trkpt>
<trkpt lat="50.119878" lon="5.225306"><time>2026-05-04T19:15:12Z</time></trkpt>
</trkseg></trk>
<trk>
<name>nrcwv5</name>
<cmt>v</cmt>
<desc>Wavreille Chemin n°5 Le grand chemin de Han</desc>
<link href="https://chemins.be/wavreille/chemin/5"/><trkseg>
<trkpt lat="50.119878" lon="5.225306"><time>2026-05-04T19:15:12Z</time></trkpt>
<trkpt lat="50.119295" lon="5.221830"><time>2026-05-04T19:25:12Z</time></trkpt>
<trkpt lat="50.118786" lon="5.219956"><time>2026-05-04T19:35:12Z</time></trkpt>
<trkpt lat="50.117808" lon="5.215711"><time>2026-05-04T19:45:12Z</time></trkpt>
<trkpt lat="50.115861" lon="5.213872"><time>2026-05-04T19:55:12Z</time></trkpt>
<trkpt lat="50.115619" lon="5.212540"><time>2026-05-04T20:05:12Z</time></trkpt>
<trkpt lat="50.115733" lon="5.211745"><time>2026-05-04T20:15:12Z</time></trkpt>
<trkpt lat="50.115377" lon="5.209935"><time>2026-05-04T20:25:12Z</time></trkpt>
<trkpt lat="50.114950" lon="5.209284"><time>2026-05-04T20:35:12Z</time></trkpt>
<trkpt lat="50.114820" lon="5.208722"><time>2026-05-04T20:45:12Z</time></trkpt>
<trkpt lat="50.114743" lon="5.208092"><time>2026-05-04T20:55:12Z</time></trkpt>
<trkpt lat="50.114777" lon="5.207170"><time>2026-05-04T21:05:12Z</time></trkpt>
</trkseg>
</trk>
<trk>
<name>nrcwv5bis</name>
<cmt>r</cmt>
<desc>Wavreille Chemin n°5bis Chemin à la Campagne de dit Fontaine</desc>
<link href="https://chemins.be/wavreille/chemin/5bis"/><trkseg>
<trkpt lat="50.121054" lon="5.248045"><time>2026-05-04T17:55:12Z</time></trkpt>
<trkpt lat="50.119846" lon="5.247365"><time>2026-05-04T18:05:12Z</time></trkpt>
<trkpt lat="50.118613" lon="5.245161"><time>2026-05-04T18:15:12Z</time></trkpt>
</trkseg></trk>
<trk>
<name>nrcwv5bis</name>
<cmt>s</cmt>
<desc>Wavreille Chemin n°5bis Chemin à la Campagne de dit Fontaine</desc>
<link href="https://chemins.be/wavreille/chemin/5bis"/><trkseg>
<trkpt lat="50.118613" lon="5.245161"><time>2026-05-04T18:15:12Z</time></trkpt>
<trkpt lat="50.119047" lon="5.243589"><time>2026-05-04T18:25:12Z</time></trkpt>
<trkpt lat="50.119179" lon="5.242766"><time>2026-05-04T18:35:12Z</time></trkpt>
<trkpt lat="50.120142" lon="5.240252"><time>2026-05-04T18:45:12Z</time></trkpt>
</trkseg>
</trk>
<trk>
<name>nrcwv6</name>
<cmt>v</cmt>
<desc>Wavreille Chemin n°6 Chemin de Balvaux</desc>
<link href="https://chemins.be/wavreille/chemin/6"/><trkseg>
<trkpt lat="50.104494" lon="5.196081"><time>2026-05-04T17:55:12Z</time></trkpt>
<trkpt lat="50.104981" lon="5.196088"><time>2026-05-04T18:05:12Z</time></trkpt>
</trkseg></trk>
<trk>
<name>nrcwv6</name>
<cmt>r</cmt>
<desc>Wavreille Chemin n°6 Chemin de Balvaux</desc>
<link href="https://chemins.be/wavreille/chemin/6"/><trkseg>
<trkpt lat="50.104981" lon="5.196088"><time>2026-05-04T18:05:12Z</time></trkpt>
<trkpt lat="50.105392" lon="5.196116"><time>2026-05-04T18:15:12Z</time></trkpt>
<trkpt lat="50.106339" lon="5.196648"><time>2026-05-04T18:25:12Z</time></trkpt>
<trkpt lat="50.107671" lon="5.197197"><time>2026-05-04T18:35:12Z</time></trkpt>
<trkpt lat="50.108420" lon="5.196983"><time>2026-05-04T18:45:12Z</time></trkpt>
<trkpt lat="50.108986" lon="5.197351"><time>2026-05-04T18:55:12Z</time></trkpt>
<trkpt lat="50.109643" lon="5.198495"><time>2026-05-04T19:05:12Z</time></trkpt>
<trkpt lat="50.110004" lon="5.200738"><time>2026-05-04T19:15:12Z</time></trkpt>
<trkpt lat="50.110450" lon="5.202508"><time>2026-05-04T19:25:12Z</time></trkpt>
<trkpt lat="50.110509" lon="5.204228"><time>2026-05-04T19:35:12Z</time></trkpt>
<trkpt lat="50.110771" lon="5.205393"><time>2026-05-04T19:45:12Z</time></trkpt>
<trkpt lat="50.110521" lon="5.206410"><time>2026-05-04T19:55:12Z</time></trkpt>
</trkseg></trk>
<trk>
<name>nrcwv6</name>
<cmt>v</cmt>
<desc>Wavreille Chemin n°6 Chemin de Balvaux</desc>
<link href="https://chemins.be/wavreille/chemin/6"/><trkseg>
<trkpt lat="50.110521" lon="5.206410"><time>2026-05-04T19:55:12Z</time></trkpt>
<trkpt lat="50.111095" lon="5.207762"><time>2026-05-04T20:05:12Z</time></trkpt>
<trkpt lat="50.111283" lon="5.207863"><time>2026-05-04T20:15:12Z</time></trkpt>
<trkpt lat="50.112054" lon="5.208156"><time>2026-05-04T20:25:12Z</time></trkpt>
<trkpt lat="50.113805" lon="5.208495"><time>2026-05-04T20:35:12Z</time></trkpt>
<trkpt lat="50.113952" lon="5.209364"><time>2026-05-04T20:45:12Z</time></trkpt>
<trkpt lat="50.114077" lon="5.209506"><time>2026-05-04T20:55:12Z</time></trkpt>
<trkpt lat="50.114456" lon="5.209261"><time>2026-05-04T21:05:12Z</time></trkpt>
<trkpt lat="50.114887" lon="5.209297"><time>2026-05-04T21:15:12Z</time></trkpt>
</trkseg>
</trk>
<trk>
<name>nrcwv6bis</name>
<cmt>v</cmt>
<desc>Wavreille Chemin n°6bis </desc>
<link href="https://chemins.be/wavreille/chemin/6bis"/><trkseg>
<trkpt lat="50.108412" lon="5.197117"><time>2026-05-04T17:55:12Z</time></trkpt>
<trkpt lat="50.108437" lon="5.197425"><time>2026-05-04T18:05:12Z</time></trkpt>
<trkpt lat="50.108611" lon="5.198197"><time>2026-05-04T18:15:12Z</time></trkpt>
</trkseg>
</trk>
<trk>
<name>nrcwv7</name>
<cmt>r</cmt>
<desc>Wavreille Chemin n°7 Chemin de Forriere</desc>
<link href="https://chemins.be/wavreille/chemin/7"/><trkseg>
<trkpt lat="50.122225" lon="5.251367"><time>2026-05-04T17:55:12Z</time></trkpt>
<trkpt lat="50.121679" lon="5.252195"><time>2026-05-04T18:05:12Z</time></trkpt>
<trkpt lat="50.121472" lon="5.253380"><time>2026-05-04T18:15:12Z</time></trkpt>
<trkpt lat="50.121413" lon="5.253995"><time>2026-05-04T18:25:12Z</time></trkpt>
</trkseg></trk>
<trk>
<name>nrcwv7</name>
<cmt>s</cmt>
<desc>Wavreille Chemin n°7 Chemin de Forriere</desc>
<link href="https://chemins.be/wavreille/chemin/7"/><trkseg>
<trkpt lat="50.121413" lon="5.253995"><time>2026-05-04T18:25:12Z</time></trkpt>
<trkpt lat="50.121352" lon="5.254986"><time>2026-05-04T18:35:12Z</time></trkpt>
<trkpt lat="50.121240" lon="5.255516"><time>2026-05-04T18:45:12Z</time></trkpt>
</trkseg></trk>
<trk>
<name>nrcwv7</name>
<cmt>v</cmt>
<desc>Wavreille Chemin n°7 Chemin de Forriere</desc>
<link href="https://chemins.be/wavreille/chemin/7"/><trkseg>
<trkpt lat="50.121240" lon="5.255516"><time>2026-05-04T18:45:12Z</time></trkpt>
<trkpt lat="50.120718" lon="5.257953"><time>2026-05-04T18:55:12Z</time></trkpt>
<trkpt lat="50.120369" lon="5.259960"><time>2026-05-04T19:05:12Z</time></trkpt>
<trkpt lat="50.120112" lon="5.261816"><time>2026-05-04T19:15:12Z</time></trkpt>
<trkpt lat="50.122033" lon="5.264579"><time>2026-05-04T19:25:12Z</time></trkpt>
</trkseg>
</trk>
<trk>
<name>nrcwv8</name>
<cmt>v</cmt>
<desc>Wavreille Chemin n°8 Chemin de l'Esterny</desc>
<link href="https://chemins.be/wavreille/chemin/8"/><trkseg>
<trkpt lat="50.120075" lon="5.261927"><time>2026-05-04T17:55:12Z</time></trkpt>
<trkpt lat="50.118774" lon="5.263930"><time>2026-05-04T18:05:12Z</time></trkpt>
<trkpt lat="50.117580" lon="5.264928"><time>2026-05-04T18:15:12Z</time></trkpt>
<trkpt lat="50.115811" lon="5.266923"><time>2026-05-04T18:25:12Z</time></trkpt>
<trkpt lat="50.115030" lon="5.267859"><time>2026-05-04T18:35:12Z</time></trkpt>
<trkpt lat="50.114723" lon="5.269153"><time>2026-05-04T18:45:12Z</time></trkpt>
</trkseg>
</trk>
<trk>
<name>nrcwv9</name>
<cmt>r</cmt>
<desc>Wavreille Chemin n°9 Rue de Bure / Dessous le Coray</desc>
<link href="https://chemins.be/wavreille/chemin/9"/><trkseg>
<trkpt lat="50.105791" lon="5.200259"><time>2026-05-04T17:55:12Z</time></trkpt>
<trkpt lat="50.105786" lon="5.202147"><time>2026-05-04T18:05:12Z</time></trkpt>
<trkpt lat="50.105042" lon="5.205545"><time>2026-05-04T18:15:12Z</time></trkpt>
<trkpt lat="50.104716" lon="5.209621"><time>2026-05-04T18:25:12Z</time></trkpt>
</trkseg></trk>
<trk>
<name>nrcwv9</name>
<cmt>v</cmt>
<desc>Wavreille Chemin n°9 Rue de Bure / Dessous le Coray</desc>
<link href="https://chemins.be/wavreille/chemin/9"/><trkseg>
<trkpt lat="50.104716" lon="5.209621"><time>2026-05-04T18:25:12Z</time></trkpt>
<trkpt lat="50.104207" lon="5.210367"><time>2026-05-04T18:35:12Z</time></trkpt>
<trkpt lat="50.104295" lon="5.210662"><time>2026-05-04T18:45:12Z</time></trkpt>
<trkpt lat="50.104684" lon="5.211480"><time>2026-05-04T18:55:12Z</time></trkpt>
<trkpt lat="50.104621" lon="5.211562"><time>2026-05-04T19:05:12Z</time></trkpt>
<trkpt lat="50.103590" lon="5.212299"><time>2026-05-04T19:15:12Z</time></trkpt>
</trkseg></trk>
<trk>
<name>nrcwv9</name>
<cmt>r</cmt>
<desc>Wavreille Chemin n°9 Rue de Bure / Dessous le Coray</desc>
<link href="https://chemins.be/wavreille/chemin/9"/><trkseg>
<trkpt lat="50.103590" lon="5.212299"><time>2026-05-04T19:15:12Z</time></trkpt>
<trkpt lat="50.103432" lon="5.214337"><time>2026-05-04T19:25:12Z</time></trkpt>
<trkpt lat="50.103415" lon="5.217818"><time>2026-05-04T19:35:12Z</time></trkpt>
<trkpt lat="50.102723" lon="5.221468"><time>2026-05-04T19:45:12Z</time></trkpt>
<trkpt lat="50.102169" lon="5.220955"><time>2026-05-04T19:55:12Z</time></trkpt>
<trkpt lat="50.101426" lon="5.221724"><time>2026-05-04T20:05:12Z</time></trkpt>
</trkseg>
</trk>
<trk>
<name>nrcwvi1</name>
<cmt>v</cmt>
<desc>Wavreille Chemin n°i1 </desc>
<link href="https://chemins.be/wavreille/chemin/i1"/><trkseg>
<trkpt lat="50.121157" lon="5.234495"><time>2026-05-04T17:55:12Z</time></trkpt>
<trkpt lat="50.120853" lon="5.233091"><time>2026-05-04T18:05:12Z</time></trkpt>
<trkpt lat="50.120658" lon="5.231438"><time>2026-05-04T18:15:12Z</time></trkpt>
<trkpt lat="50.120294" lon="5.229627"><time>2026-05-04T18:25:12Z</time></trkpt>
<trkpt lat="50.119553" lon="5.228859"><time>2026-05-04T18:35:12Z</time></trkpt>
<trkpt lat="50.118281" lon="5.228332"><time>2026-05-04T18:45:12Z</time></trkpt>
<trkpt lat="50.117489" lon="5.228416"><time>2026-05-04T18:55:12Z</time></trkpt>
<trkpt lat="50.116434" lon="5.228761"><time>2026-05-04T19:05:12Z</time></trkpt>
<trkpt lat="50.114914" lon="5.227684"><time>2026-05-04T19:15:12Z</time></trkpt>
<trkpt lat="50.114272" lon="5.227203"><time>2026-05-04T19:25:12Z</time></trkpt>
<trkpt lat="50.114289" lon="5.227088"><time>2026-05-04T19:35:12Z</time></trkpt>
<trkpt lat="50.114131" lon="5.226071"><time>2026-05-04T19:45:12Z</time></trkpt>
<trkpt lat="50.114835" lon="5.224984"><time>2026-05-04T19:55:12Z</time></trkpt>
<trkpt lat="50.115523" lon="5.224298"><time>2026-05-04T20:05:12Z</time></trkpt>
<trkpt lat="50.115682" lon="5.223475"><time>2026-05-04T20:15:12Z</time></trkpt>
<trkpt lat="50.115296" lon="5.222210"><time>2026-05-04T20:25:12Z</time></trkpt>
<trkpt lat="50.114338" lon="5.221662"><time>2026-05-04T20:35:12Z</time></trkpt>
<trkpt lat="50.113847" lon="5.221136"><time>2026-05-04T20:45:12Z</time></trkpt>
<trkpt lat="50.113677" lon="5.219804"><time>2026-05-04T20:55:12Z</time></trkpt>
<trkpt lat="50.113814" lon="5.219233"><time>2026-05-04T21:05:12Z</time></trkpt>
<trkpt lat="50.113950" lon="5.218849"><time>2026-05-04T21:15:12Z</time></trkpt>
<trkpt lat="50.114422" lon="5.217622"><time>2026-05-04T21:25:12Z</time></trkpt>
<trkpt lat="50.114759" lon="5.216971"><time>2026-05-04T21:35:12Z</time></trkpt>
<trkpt lat="50.114802" lon="5.216091"><time>2026-05-04T21:45:12Z</time></trkpt>
<trkpt lat="50.114230" lon="5.215535"><time>2026-05-04T21:55:12Z</time></trkpt>
<trkpt lat="50.113755" lon="5.215373"><time>2026-05-04T22:05:12Z</time></trkpt>
<trkpt lat="50.113157" lon="5.214831"><time>2026-05-04T22:15:12Z</time></trkpt>
<trkpt lat="50.112588" lon="5.213884"><time>2026-05-04T22:25:12Z</time></trkpt>
<trkpt lat="50.112627" lon="5.212235"><time>2026-05-04T22:35:12Z</time></trkpt>
<trkpt lat="50.113049" lon="5.211138"><time>2026-05-04T22:45:12Z</time></trkpt>
<trkpt lat="50.113631" lon="5.210170"><time>2026-05-04T22:55:12Z</time></trkpt>
<trkpt lat="50.114049" lon="5.209548"><time>2026-05-04T23:05:12Z</time></trkpt>
</trkseg>
</trk>
<trk>
<name>nrcwvi10</name>
<cmt>v</cmt>
<desc>Wavreille Chemin n°i10 Rue du Couvent</desc>
<link href="https://chemins.be/wavreille/chemin/i10"/><trkseg>
<trkpt lat="50.119534" lon="5.248086"><time>2026-05-04T17:55:12Z</time></trkpt>
<trkpt lat="50.119341" lon="5.248670"><time>2026-05-04T18:05:12Z</time></trkpt>
</trkseg>
</trk>
<trk>
<name>nrcwvi11</name>
<cmt>q</cmt>
<desc>Wavreille Chemin n°i11 </desc>
<link href="https://chemins.be/wavreille/chemin/i11"/><trkseg>
<trkpt lat="50.102092" lon="5.214397"><time>2026-05-04T17:55:12Z</time></trkpt>
<trkpt lat="50.102142" lon="5.220954"><time>2026-05-04T18:05:12Z</time></trkpt>
<trkpt lat="50.102185" lon="5.222465"><time>2026-05-04T18:15:12Z</time></trkpt>
<trkpt lat="50.102921" lon="5.225120"><time>2026-05-04T18:25:12Z</time></trkpt>
<trkpt lat="50.105978" lon="5.226251"><time>2026-05-04T18:35:12Z</time></trkpt>
</trkseg>
</trk>
<trk>
<name>nrcwvi12</name>
<cmt>v</cmt>
<desc>Wavreille Sentier n°i12 </desc>
<link href="https://chemins.be/wavreille/sentier/i12"/><trkseg>
<trkpt lat="50.118297" lon="5.232136"><time>2026-05-04T17:55:12Z</time></trkpt>
<trkpt lat="50.118204" lon="5.231351"><time>2026-05-04T18:05:12Z</time></trkpt>
<trkpt lat="50.118006" lon="5.230229"><time>2026-05-04T18:15:12Z</time></trkpt>
<trkpt lat="50.117822" lon="5.229541"><time>2026-05-04T18:25:12Z</time></trkpt>
<trkpt lat="50.117715" lon="5.229371"><time>2026-05-04T18:35:12Z</time></trkpt>
<trkpt lat="50.117156" lon="5.229627"><time>2026-05-04T18:45:12Z</time></trkpt>
<trkpt lat="50.116822" lon="5.229858"><time>2026-05-04T18:55:12Z</time></trkpt>
<trkpt lat="50.116543" lon="5.229895"><time>2026-05-04T19:05:12Z</time></trkpt>
<trkpt lat="50.116291" lon="5.229877"><time>2026-05-04T19:15:12Z</time></trkpt>
<trkpt lat="50.116021" lon="5.229900"><time>2026-05-04T19:25:12Z</time></trkpt>
<trkpt lat="50.115815" lon="5.229854"><time>2026-05-04T19:35:12Z</time></trkpt>
<trkpt lat="50.115501" lon="5.229667"><time>2026-05-04T19:45:12Z</time></trkpt>
<trkpt lat="50.115180" lon="5.229423"><time>2026-05-04T19:55:12Z</time></trkpt>
<trkpt lat="50.114902" lon="5.229278"><time>2026-05-04T20:05:12Z</time></trkpt>
<trkpt lat="50.114732" lon="5.229135"><time>2026-05-04T20:15:12Z</time></trkpt>
<trkpt lat="50.114617" lon="5.228840"><time>2026-05-04T20:25:12Z</time></trkpt>
<trkpt lat="50.114332" lon="5.228541"><time>2026-05-04T20:35:12Z</time></trkpt>
<trkpt lat="50.114198" lon="5.228455"><time>2026-05-04T20:45:12Z</time></trkpt>
<trkpt lat="50.114146" lon="5.228188"><time>2026-05-04T20:55:12Z</time></trkpt>
<trkpt lat="50.113997" lon="5.227640"><time>2026-05-04T21:05:12Z</time></trkpt>
<trkpt lat="50.113989" lon="5.227472"><time>2026-05-04T21:15:12Z</time></trkpt>
<trkpt lat="50.114097" lon="5.227051"><time>2026-05-04T21:25:12Z</time></trkpt>
<trkpt lat="50.114298" lon="5.227212"><time>2026-05-04T21:35:12Z</time></trkpt>
</trkseg>
</trk>
<trk>
<name>nrcwvi13</name>
<cmt>v</cmt>
<desc>Wavreille Chemin n°i13 </desc>
<link href="https://chemins.be/wavreille/chemin/i13"/><trkseg>
<trkpt lat="50.133370" lon="5.223926"><time>2026-05-04T17:55:12Z</time></trkpt>
<trkpt lat="50.132765" lon="5.222854"><time>2026-05-04T18:05:12Z</time></trkpt>
<trkpt lat="50.132022" lon="5.222832"><time>2026-05-04T18:15:12Z</time></trkpt>
</trkseg>
</trk>
<trk>
<name>nrcwvi14</name>
<cmt>v</cmt>
<desc>Wavreille Chemin n°i14 </desc>
<link href="https://chemins.be/wavreille/chemin/i14"/><trkseg>
<trkpt lat="50.120211" lon="5.256928"><time>2026-05-04T17:55:12Z</time></trkpt>
<trkpt lat="50.120508" lon="5.258816"><time>2026-05-04T18:05:12Z</time></trkpt>
</trkseg>
</trk>
<trk>
<name>nrcwvi15</name>
<cmt>v</cmt>
<desc>Wavreille Chemin n°i15 </desc>
<link href="https://chemins.be/wavreille/chemin/i15"/><trkseg>
<trkpt lat="50.104459" lon="5.196067"><time>2026-05-04T17:55:12Z</time></trkpt>
<trkpt lat="50.104068" lon="5.196114"><time>2026-05-04T18:05:12Z</time></trkpt>
<trkpt lat="50.102951" lon="5.196728"><time>2026-05-04T18:15:12Z</time></trkpt>
<trkpt lat="50.101863" lon="5.197326"><time>2026-05-04T18:25:12Z</time></trkpt>
<trkpt lat="50.099881" lon="5.198202"><time>2026-05-04T18:35:12Z</time></trkpt>
</trkseg>
</trk>
<trk>
<name>nrcwvi16</name>
<cmt>v</cmt>
<desc>Wavreille Sentier n°i16 </desc>
<link href="https://chemins.be/wavreille/sentier/i16"/><trkseg>
<trkpt lat="50.120524" lon="5.219092"><time>2026-05-04T17:55:12Z</time></trkpt>
<trkpt lat="50.118781" lon="5.219922"><time>2026-05-04T18:05:12Z</time></trkpt>
</trkseg>
</trk>
<trk>
<name>nrcwvi17</name>
<cmt>v</cmt>
<desc>Wavreille Chemin n°i17 </desc>
<link href="https://chemins.be/wavreille/chemin/i17"/><trkseg>
<trkpt lat="50.109789" lon="5.225245"><time>2026-05-04T17:55:12Z</time></trkpt>
<trkpt lat="50.110289" lon="5.224909"><time>2026-05-04T18:05:12Z</time></trkpt>
<trkpt lat="50.110523" lon="5.224959"><time>2026-05-04T18:15:12Z</time></trkpt>
<trkpt lat="50.110789" lon="5.225210"><time>2026-05-04T18:25:12Z</time></trkpt>
</trkseg>
</trk>
<trk>
<name>nrcwvi18</name>
<cmt>v</cmt>
<desc>Wavreille Chemin n°i18 </desc>
<link href="https://chemins.be/wavreille/chemin/i18"/><trkseg>
<trkpt lat="50.129950" lon="5.234585"><time>2026-05-04T17:55:12Z</time></trkpt>
<trkpt lat="50.130528" lon="5.232267"><time>2026-05-04T18:05:12Z</time></trkpt>
<trkpt lat="50.130289" lon="5.227890"><time>2026-05-04T18:15:12Z</time></trkpt>
<trkpt lat="50.131793" lon="5.224013"><time>2026-05-04T18:25:12Z</time></trkpt>
<trkpt lat="50.131963" lon="5.222619"><time>2026-05-04T18:35:12Z</time></trkpt>
</trkseg>
</trk>
<trk>
<name>nrcwvi19</name>
<cmt>v</cmt>
<desc>Wavreille Chemin n°i19 </desc>
<link href="https://chemins.be/wavreille/chemin/i19"/><trkseg>
<trkpt lat="50.113467" lon="5.232450"><time>2026-05-04T17:55:12Z</time></trkpt>
<trkpt lat="50.113696" lon="5.231835"><time>2026-05-04T18:05:12Z</time></trkpt>
<trkpt lat="50.113751" lon="5.230933"><time>2026-05-04T18:15:12Z</time></trkpt>
<trkpt lat="50.113054" lon="5.229474"><time>2026-05-04T18:25:12Z</time></trkpt>
<trkpt lat="50.112660" lon="5.228430"><time>2026-05-04T18:35:12Z</time></trkpt>
<trkpt lat="50.113045" lon="5.226256"><time>2026-05-04T18:45:12Z</time></trkpt>
<trkpt lat="50.113274" lon="5.225710"><time>2026-05-04T18:55:12Z</time></trkpt>
<trkpt lat="50.113462" lon="5.225515"><time>2026-05-04T19:05:12Z</time></trkpt>
<trkpt lat="50.114568" lon="5.224639"><time>2026-05-04T19:15:12Z</time></trkpt>
<trkpt lat="50.115173" lon="5.223151"><time>2026-05-04T19:25:12Z</time></trkpt>
<trkpt lat="50.114513" lon="5.222250"><time>2026-05-04T19:35:12Z</time></trkpt>
<trkpt lat="50.113595" lon="5.221378"><time>2026-05-04T19:45:12Z</time></trkpt>
<trkpt lat="50.113357" lon="5.220505"><time>2026-05-04T19:55:12Z</time></trkpt>
<trkpt lat="50.113357" lon="5.219332"><time>2026-05-04T20:05:12Z</time></trkpt>
<trkpt lat="50.113852" lon="5.219203"><time>2026-05-04T20:15:12Z</time></trkpt>
</trkseg>
</trk>
<trk>
<name>nrcwvi2</name>
<cmt>v</cmt>
<desc>Wavreille Chemin n°i2 </desc>
<link href="https://chemins.be/wavreille/chemin/i2"/><trkseg>
<trkpt lat="50.120530" lon="5.219242"><time>2026-05-04T17:55:12Z</time></trkpt>
<trkpt lat="50.120585" lon="5.218541"><time>2026-05-04T18:05:12Z</time></trkpt>
<trkpt lat="50.120773" lon="5.217936"><time>2026-05-04T18:15:12Z</time></trkpt>
<trkpt lat="50.124261" lon="5.216077"><time>2026-05-04T18:25:12Z</time></trkpt>
<trkpt lat="50.123738" lon="5.212768"><time>2026-05-04T18:35:12Z</time></trkpt>
<trkpt lat="50.123527" lon="5.210479"><time>2026-05-04T18:45:12Z</time></trkpt>
<trkpt lat="50.123669" lon="5.210093"><time>2026-05-04T18:55:12Z</time></trkpt>
<trkpt lat="50.123886" lon="5.210373"><time>2026-05-04T19:05:12Z</time></trkpt>
</trkseg>
</trk>
<trk>
<name>nrcwvi20</name>
<cmt>v</cmt>
<desc>Wavreille Sentier n°i20 </desc>
<link href="https://chemins.be/wavreille/sentier/i20"/><trkseg>
<trkpt lat="50.114110" lon="5.227074"><time>2026-05-04T17:55:12Z</time></trkpt>
<trkpt lat="50.113791" lon="5.226166"><time>2026-05-04T18:05:12Z</time></trkpt>
<trkpt lat="50.113457" lon="5.225517"><time>2026-05-04T18:15:12Z</time></trkpt>
</trkseg>
</trk>
<trk>
<name>nrcwvi3</name>
<cmt>v</cmt>
<desc>Wavreille Sentier n°i3 </desc>
<link href="https://chemins.be/wavreille/sentier/i3"/><trkseg>
<trkpt lat="50.118658" lon="5.219865"><time>2026-05-04T17:55:12Z</time></trkpt>
<trkpt lat="50.118265" lon="5.219578"><time>2026-05-04T18:05:12Z</time></trkpt>
<trkpt lat="50.117740" lon="5.218814"><time>2026-05-04T18:15:12Z</time></trkpt>
<trkpt lat="50.116780" lon="5.218531"><time>2026-05-04T18:25:12Z</time></trkpt>
<trkpt lat="50.115905" lon="5.218823"><time>2026-05-04T18:35:12Z</time></trkpt>
<trkpt lat="50.115426" lon="5.219164"><time>2026-05-04T18:45:12Z</time></trkpt>
<trkpt lat="50.114574" lon="5.218869"><time>2026-05-04T18:55:12Z</time></trkpt>
<trkpt lat="50.113954" lon="5.218858"><time>2026-05-04T19:05:12Z</time></trkpt>
</trkseg>
</trk>
<trk>
<name>nrcwvi4</name>
<cmt>v</cmt>
<desc>Wavreille Chemin n°i4 </desc>
<link href="https://chemins.be/wavreille/chemin/i4"/><trkseg>
<trkpt lat="50.098897" lon="5.204864"><time>2026-05-04T17:55:12Z</time></trkpt>
<trkpt lat="50.098502" lon="5.203585"><time>2026-05-04T18:05:12Z</time></trkpt>
<trkpt lat="50.098478" lon="5.201907"><time>2026-05-04T18:15:12Z</time></trkpt>
<trkpt lat="50.096969" lon="5.200193"><time>2026-05-04T18:25:12Z</time></trkpt>
</trkseg>
</trk>
<trk>
<name>nrcwvi5</name>
<cmt>v</cmt>
<desc>Wavreille Sentier n°i5 </desc>
<link href="https://chemins.be/wavreille/sentier/i5"/><trkseg>
<trkpt lat="50.110883" lon="5.207325"><time>2026-05-04T17:55:12Z</time></trkpt>
<trkpt lat="50.111013" lon="5.207998"><time>2026-05-04T18:05:12Z</time></trkpt>
<trkpt lat="50.111125" lon="5.209832"><time>2026-05-04T18:15:12Z</time></trkpt>
<trkpt lat="50.111029" lon="5.211941"><time>2026-05-04T18:25:12Z</time></trkpt>
<trkpt lat="50.110946" lon="5.214680"><time>2026-05-04T18:35:12Z</time></trkpt>
</trkseg>
</trk>
<trk>
<name>nrcwvi6</name>
<cmt>v</cmt>
<desc>Wavreille Chemin n°i6 Rue des Chalets</desc>
<link href="https://chemins.be/wavreille/chemin/i6"/><trkseg>
<trkpt lat="50.114447" lon="5.209261"><time>2026-05-04T17:55:12Z</time></trkpt>
<trkpt lat="50.114748" lon="5.208707"><time>2026-05-04T18:05:12Z</time></trkpt>
</trkseg>
</trk>
<trk>
<name>nrcwvi7</name>
<cmt>v</cmt>
<desc>Wavreille Sentier n°i7 </desc>
<link href="https://chemins.be/wavreille/sentier/i7"/><trkseg>
<trkpt lat="50.119687" lon="5.253977"><time>2026-05-04T17:55:12Z</time></trkpt>
<trkpt lat="50.120066" lon="5.253872"><time>2026-05-04T18:05:12Z</time></trkpt>
<trkpt lat="50.120470" lon="5.253851"><time>2026-05-04T18:15:12Z</time></trkpt>
</trkseg>
</trk>
<trk>
<name>nrcwvi8</name>
<cmt>v</cmt>
<desc>Wavreille Chemin n°i8 </desc>
<link href="https://chemins.be/wavreille/chemin/i8"/><trkseg>
<trkpt lat="50.112072" lon="5.208171"><time>2026-05-04T17:55:12Z</time></trkpt>
<trkpt lat="50.112604" lon="5.207970"><time>2026-05-04T18:05:12Z</time></trkpt>
<trkpt lat="50.112874" lon="5.207919"><time>2026-05-04T18:15:12Z</time></trkpt>
<trkpt lat="50.113485" lon="5.208014"><time>2026-05-04T18:25:12Z</time></trkpt>
<trkpt lat="50.113666" lon="5.207905"><time>2026-05-04T18:35:12Z</time></trkpt>
<trkpt lat="50.113807" lon="5.208187"><time>2026-05-04T18:45:12Z</time></trkpt>
<trkpt lat="50.113769" lon="5.208494"><time>2026-05-04T18:55:12Z</time></trkpt>
</trkseg>
</trk>
<trk>
<name>nrcwvi9</name>
<cmt>v</cmt>
<desc>Wavreille Chemin n°i9 </desc>
<link href="https://chemins.be/wavreille/chemin/i9"/><trkseg>
<trkpt lat="50.126776" lon="5.252360"><time>2026-05-04T17:55:12Z</time></trkpt>
<trkpt lat="50.127752" lon="5.251693"><time>2026-05-04T18:05:12Z</time></trkpt>
<trkpt lat="50.127830" lon="5.252114"><time>2026-05-04T18:15:12Z</time></trkpt>
</trkseg>
</trk>
<trk>
<name>nrcwvr18</name>
<cmt>v</cmt>
<desc>Wavreille Chemin de remembrement n°r18 </desc>
<link href="https://chemins.be/wavreille/chemin/r18"/><trkseg>
<trkpt lat="50.125872" lon="5.235168"><time>2026-05-04T17:55:12Z</time></trkpt>
<trkpt lat="50.124606" lon="5.231369"><time>2026-05-04T18:05:12Z</time></trkpt>
</trkseg>
</trk>
<trk>
<name>nrcwvr19</name>
<cmt>r</cmt>
<desc>Wavreille Chemin de remembrement n°r19 Rue du Calvaire</desc>
<link href="https://chemins.be/wavreille/chemin/r19"/><trkseg>
<trkpt lat="50.124611" lon="5.237887"><time>2026-05-04T17:55:12Z</time></trkpt>
<trkpt lat="50.124102" lon="5.236199"><time>2026-05-04T18:05:12Z</time></trkpt>
<trkpt lat="50.123279" lon="5.233247"><time>2026-05-04T18:15:12Z</time></trkpt>
<trkpt lat="50.122405" lon="5.231120"><time>2026-05-04T18:25:12Z</time></trkpt>
</trkseg>
</trk>
<trk>
<name>nrcwvr21</name>
<cmt>b</cmt>
<desc>Wavreille Chemin de remembrement n°r21 </desc>
<link href="https://chemins.be/wavreille/chemin/r21"/><trkseg>
<trkpt lat="50.120755" lon="5.217891"><time>2026-05-04T17:55:12Z</time></trkpt>
<trkpt lat="50.120760" lon="5.215218"><time>2026-05-04T18:05:12Z</time></trkpt>
<trkpt lat="50.120304" lon="5.214540"><time>2026-05-04T18:15:12Z</time></trkpt>
<trkpt lat="50.119969" lon="5.213188"><time>2026-05-04T18:25:12Z</time></trkpt>
</trkseg>
</trk>
<trk>
<name>nrcwvr23</name>
<cmt>r</cmt>
<desc>Wavreille Chemin de remembrement n°r23 Rue des Chalets</desc>
<link href="https://chemins.be/wavreille/chemin/r23"/><trkseg>
<trkpt lat="50.120328" lon="5.239515"><time>2026-05-04T17:55:12Z</time></trkpt>
<trkpt lat="50.119953" lon="5.237872"><time>2026-05-04T18:05:12Z</time></trkpt>
<trkpt lat="50.119531" lon="5.236717"><time>2026-05-04T18:15:12Z</time></trkpt>
<trkpt lat="50.119372" lon="5.235120"><time>2026-05-04T18:25:12Z</time></trkpt>
<trkpt lat="50.119061" lon="5.234459"><time>2026-05-04T18:35:12Z</time></trkpt>
<trkpt lat="50.118700" lon="5.233570"><time>2026-05-04T18:45:12Z</time></trkpt>
<trkpt lat="50.118315" lon="5.232134"><time>2026-05-04T18:55:12Z</time></trkpt>
</trkseg></trk>
<trk>
<name>nrcwvr23</name>
<cmt>v</cmt>
<desc>Wavreille Chemin de remembrement n°r23 Rue des Chalets</desc>
<link href="https://chemins.be/wavreille/chemin/r23"/><trkseg>
<trkpt lat="50.118315" lon="5.232134"><time>2026-05-04T18:55:12Z</time></trkpt>
<trkpt lat="50.118204" lon="5.231407"><time>2026-05-04T19:05:12Z</time></trkpt>
</trkseg>
</trk>
<trk>
<name>nrcwvr25</name>
<cmt>v</cmt>
<desc>Wavreille Chemin de remembrement n°r25 </desc>
<link href="https://chemins.be/wavreille/chemin/r25"/><trkseg>
<trkpt lat="50.133755" lon="5.231871"><time>2026-05-04T17:55:12Z</time></trkpt>
<trkpt lat="50.134307" lon="5.232594"><time>2026-05-04T18:05:12Z</time></trkpt>
<trkpt lat="50.134891" lon="5.232674"><time>2026-05-04T18:15:12Z</time></trkpt>
</trkseg>
</trk>
<trk>
<name>nrcwvr26</name>
<cmt>v</cmt>
<desc>Wavreille Chemin de remembrement n°r26 </desc>
<link href="https://chemins.be/wavreille/chemin/r26"/><trkseg>
<trkpt lat="50.123020" lon="5.229439"><time>2026-05-04T17:55:12Z</time></trkpt>
<trkpt lat="50.126811" lon="5.226248"><time>2026-05-04T18:05:12Z</time></trkpt>
</trkseg>
</trk>
<trk>
<name>nrcwvr28</name>
<cmt>v</cmt>
<desc>Wavreille Chemin de remembrement n°r28 </desc>
<link href="https://chemins.be/wavreille/chemin/r28"/><trkseg>
<trkpt lat="50.103470" lon="5.215177"><time>2026-05-04T17:55:12Z</time></trkpt>
<trkpt lat="50.105546" lon="5.215325"><time>2026-05-04T18:05:12Z</time></trkpt>
<trkpt lat="50.106739" lon="5.215752"><time>2026-05-04T18:15:12Z</time></trkpt>
<trkpt lat="50.106836" lon="5.216047"><time>2026-05-04T18:25:12Z</time></trkpt>
<trkpt lat="50.106517" lon="5.217817"><time>2026-05-04T18:35:12Z</time></trkpt>
</trkseg>
</trk>
<trk>
<name>nrcwvr34</name>
<cmt>r</cmt>
<desc>Wavreille Chemin de remembrement n°r34 Rue du Petit Chêne</desc>
<link href="https://chemins.be/wavreille/chemin/r34"/><trkseg>
<trkpt lat="50.119936" lon="5.255533"><time>2026-05-04T17:55:12Z</time></trkpt>
<trkpt lat="50.118448" lon="5.256121"><time>2026-05-04T18:05:12Z</time></trkpt>
</trkseg>
</trk>
<trk>
<name>nrcwvr35</name>
<cmt>r</cmt>
<desc>Wavreille Chemin de remembrement n°r35 Rue du Petit Chêne</desc>
<link href="https://chemins.be/wavreille/chemin/r35"/><trkseg>
<trkpt lat="50.118721" lon="5.253643"><time>2026-05-04T17:55:12Z</time></trkpt>
<trkpt lat="50.119316" lon="5.257001"><time>2026-05-04T18:05:12Z</time></trkpt>
</trkseg>
</trk>
<trk>
<name>nrcwvr36</name>
<cmt>r</cmt>
<desc>Wavreille Chemin de remembrement n°r36 Rue des Criquets</desc>
<link href="https://chemins.be/wavreille/chemin/r36"/><trkseg>
<trkpt lat="50.118216" lon="5.254676"><time>2026-05-04T17:55:12Z</time></trkpt>
<trkpt lat="50.118660" lon="5.257733"><time>2026-05-04T18:05:12Z</time></trkpt>
</trkseg>
</trk>
<trk>
<name>nrcwvr44</name>
<cmt>v</cmt>
<desc>Wavreille Chemin de remembrement n°r44 </desc>
<link href="https://chemins.be/wavreille/chemin/r44"/><trkseg>
<trkpt lat="50.104482" lon="5.203410"><time>2026-05-04T17:55:12Z</time></trkpt>
<trkpt lat="50.103813" lon="5.203742"><time>2026-05-04T18:05:12Z</time></trkpt>
<trkpt lat="50.103432" lon="5.203553"><time>2026-05-04T18:15:12Z</time></trkpt>
<trkpt lat="50.103345" lon="5.203831"><time>2026-05-04T18:25:12Z</time></trkpt>
</trkseg>
</trk>
<trk>
<name>nrcwvr6</name>
<cmt>v</cmt>
<desc>Wavreille Chemin de remembrement n°r6 </desc>
<link href="https://chemins.be/wavreille/chemin/r6"/><trkseg>
<trkpt lat="50.110394" lon="5.244045"><time>2026-05-04T17:55:12Z</time></trkpt>
<trkpt lat="50.110044" lon="5.243941"><time>2026-05-04T18:05:12Z</time></trkpt>
<trkpt lat="50.109667" lon="5.243906"><time>2026-05-04T18:15:12Z</time></trkpt>
</trkseg>
</trk>
</gpx>